Time;durP1;ratioP1;P1;durP2;ratioP2;P2;SDS_P1;SDS_P2;PMS_P1;PMS_P2;Temp;Humidity;BMP_temperature;BMP_pressure;BME280_temperature;BME280_humidity;BME280_pressure;Samples;Min_cycle;Max_cycle;Signal;HPM_P1;HPM_P2
2022/04/28 00:00:54;;;;;;;14.88;3.17;;;;;;;;;;5039997;28;20045;-68
2022/04/28 00:03:19;;;;;;;13.15;2.80;;;;;;;;;;5036766;28;20037;-68
2022/04/28 00:06:37;;;;;;;11.68;4.07;;;;;;;;;;5038447;28;20045;-68
2022/04/28 00:09:55;;;;;;;8.48;2.67;;;;;;;;;;5036967;28;20037;-68
2022/04/28 00:13:13;;;;;;;10.35;2.95;;;;;;;;;;5022893;28;20041;-68
2022/04/28 00:16:31;;;;;;;6.07;2.53;;;;;;;;;;5040930;28;20033;-68
2022/04/28 00:19:49;;;;;;;8.73;2.88;;;;;;;;;;5032389;28;20091;-68
2022/04/28 00:23:07;;;;;;;10.73;2.90;;;;;;;;;;5022694;28;20034;-68
2022/04/28 00:26:25;;;;;;;12.00;2.90;;;;;;;;;;5022881;28;20037;-68
2022/04/28 00:29:43;;;;;;;7.45;2.70;;;;;;;;;;5026270;28;20049;-68
2022/04/28 00:33:02;;;;;;;9.18;2.60;;;;;;;;;;5033940;28;20052;-68
2022/04/28 00:36:20;;;;;;;15.52;3.28;;;;;;;;;;5034615;28;20034;-68
2022/04/28 00:39:38;;;;;;;8.77;2.67;;;;;;;;;;5028643;28;20465;-68
2022/04/28 00:43:18;;;;;;;9.65;3.00;;;;;;;;;;5030958;28;20033;-68
2022/04/28 00:46:36;;;;;;;12.18;2.70;;;;;;;;;;5032412;28;20037;-68
2022/04/28 00:53:32;;;;;;;10.20;2.40;;;;;;;;;;5028495;28;20071;-68
2022/04/28 00:56:50;;;;;;;12.40;2.78;;;;;;;;;;5026882;28;20543;-68
2022/04/28 01:00:11;;;;;;;6.45;2.40;;;;;;;;;;5031072;28;20033;-68
2022/04/28 01:03:30;;;;;;;10.63;2.97;;;;;;;;;;5026839;28;20046;-68
2022/04/28 01:06:51;;;;;;;8.57;2.63;;;;;;;;;;5024357;28;20068;-68
2022/04/28 01:10:09;;;;;;;8.13;2.60;;;;;;;;;;5033941;28;20037;-68
2022/04/28 01:13:28;;;;;;;9.30;2.80;;;;;;;;;;5039440;28;20126;-68
2022/04/28 01:16:46;;;;;;;7.82;2.58;;;;;;;;;;5039631;28;20040;-68
2022/04/28 01:20:04;;;;;;;6.78;2.60;;;;;;;;;;5034489;28;21666;-68
2022/04/28 01:22:29;;;;;;;9.93;2.92;;;;;;;;;;5029429;28;20440;-68
2022/04/28 01:24:55;;;;;;;7.75;2.47;;;;;;;;;;5037815;28;20091;-68
2022/04/28 01:27:21;;;;;;;7.30;2.65;;;;;;;;;;5032639;28;20029;-68
2022/04/28 01:29:47;;;;;;;8.98;2.67;;;;;;;;;;5032189;28;20056;-68
2022/04/28 01:32:12;;;;;;;13.73;2.42;;;;;;;;;;5027244;28;20060;-68
2022/04/28 01:35:30;;;;;;;7.38;2.55;;;;;;;;;;5034126;28;20111;-68
2022/04/28 01:38:48;;;;;;;5.80;2.72;;;;;;;;;;5032831;28;20473;-68
2022/04/28 01:42:06;;;;;;;8.52;2.70;;;;;;;;;;5040802;28;20114;-68
2022/04/28 01:45:23;;;;;;;8.38;2.70;;;;;;;;;;5037078;28;20436;-68
2022/04/28 01:48:41;;;;;;;9.52;2.83;;;;;;;;;;5031398;28;20056;-68
2022/04/28 01:55:36;;;;;;;6.60;2.35;;;;;;;;;;5035154;28;20055;-68
2022/04/28 01:58:23;;;;;;;9.57;2.80;;;;;;;;;;5031562;28;20041;-68
2022/04/28 02:00:48;;;;;;;11.48;3.00;;;;;;;;;;5040252;28;20493;-68
2022/04/28 02:03:14;;;;;;;13.70;2.92;;;;;;;;;;5032631;28;20060;-68
2022/04/28 02:05:39;;;;;;;9.20;2.83;;;;;;;;;;5036718;28;20025;-68
2022/04/28 02:08:05;;;;;;;8.32;3.13;;;;;;;;;;5032636;28;20544;-68
2022/04/28 02:10:30;;;;;;;12.93;2.92;;;;;;;;;;5032311;28;20038;-68
2022/04/28 02:13:48;;;;;;;7.30;2.75;;;;;;;;;;5035227;28;20032;-68
2022/04/28 02:17:06;;;;;;;10.80;2.90;;;;;;;;;;5029552;28;20042;-68
2022/04/28 02:20:26;;;;;;;7.03;2.78;;;;;;;;;;5031913;28;20048;-68
2022/04/28 02:23:43;;;;;;;12.40;2.85;;;;;;;;;;5032333;28;20484;-68
2022/04/28 02:27:01;;;;;;;10.95;3.28;;;;;;;;;;5023598;28;20022;-68
2022/04/28 02:30:19;;;;;;;10.23;3.08;;;;;;;;;;5033418;28;20057;-68
2022/04/28 02:33:38;;;;;;;11.65;2.67;;;;;;;;;;5028045;28;20037;-68
2022/04/28 02:36:56;;;;;;;7.78;2.80;;;;;;;;;;5042997;28;20087;-68
2022/04/28 02:40:16;;;;;;;7.22;2.55;;;;;;;;;;5037249;28;20032;-68
2022/04/28 02:43:34;;;;;;;5.70;2.50;;;;;;;;;;5036830;28;20041;-68
2022/04/28 02:46:04;;;;;;;8.32;2.83;;;;;;;;;;5038693;28;20045;-69
2022/04/28 02:48:29;;;;;;;9.93;2.58;;;;;;;;;;5036212;28;20119;-68
2022/04/28 02:50:55;;;;;;;7.30;2.80;;;;;;;;;;5031273;28;20174;-68
2022/04/28 02:53:21;;;;;;;9.25;3.15;;;;;;;;;;5034545;28;20021;-68
2022/04/28 02:55:46;;;;;;;9.45;3.08;;;;;;;;;;5033796;28;20037;-68
2022/04/28 02:58:11;;;;;;;7.15;3.03;;;;;;;;;;5035585;28;20457;-68
2022/04/28 03:00:37;;;;;;;8.00;3.10;;;;;;;;;;5040206;28;20052;-68
2022/04/28 03:03:03;;;;;;;11.98;4.05;;;;;;;;;;5035586;28;20046;-68
2022/04/28 03:05:28;;;;;;;8.93;3.00;;;;;;;;;;5042520;28;20412;-67
2022/04/28 03:10:49;;;;;;;11.02;3.08;;;;;;;;;;5040335;28;20408;-68
2022/04/28 03:13:17;;;;;;;9.15;2.95;;;;;;;;;;5039326;28;20056;-68
2022/04/28 03:15:47;;;;;;;8.88;2.90;;;;;;;;;;5040080;28;20033;-68
2022/04/28 03:19:05;;;;;;;12.00;3.17;;;;;;;;;;5035064;28;20025;-68
2022/04/28 03:22:24;;;;;;;9.20;3.28;;;;;;;;;;5035300;28;20037;-68
2022/04/28 03:25:41;;;;;;;6.50;2.80;;;;;;;;;;5037527;28;20075;-68
2022/04/28 03:28:08;;;;;;;8.75;2.58;;;;;;;;;;5030718;28;20116;-68
2022/04/28 03:30:33;;;;;;;7.90;2.75;;;;;;;;;;5037037;28;20810;-68
2022/04/28 03:32:59;;;;;;;8.57;2.75;;;;;;;;;;5025610;28;20041;-68
2022/04/28 03:35:25;;;;;;;13.25;3.38;;;;;;;;;;5036249;28;20041;-68
2022/04/28 03:37:50;;;;;;;10.70;3.30;;;;;;;;;;5030403;28;20167;-68
2022/04/28 03:40:17;;;;;;;7.40;3.00;;;;;;;;;;5041658;28;20060;-68
2022/04/28 03:42:43;;;;;;;10.32;3.08;;;;;;;;;;5044287;28;20030;-68
2022/04/28 03:45:09;;;;;;;9.93;2.95;;;;;;;;;;5036335;28;20032;-68
2022/04/28 03:47:38;;;;;;;11.25;3.33;;;;;;;;;;5034464;28;20034;-68
2022/04/28 03:50:05;;;;;;;7.97;3.00;;;;;;;;;;5036425;28;20517;-68
2022/04/28 03:52:31;;;;;;;10.10;3.45;;;;;;;;;;5034589;28;20029;-68
2022/04/28 03:55:49;;;;;;;6.07;2.85;;;;;;;;;;5039892;28;20472;-68
2022/04/28 03:59:07;;;;;;;6.78;3.00;;;;;;;;;;5037329;28;20043;-68
2022/04/28 04:02:25;;;;;;;6.53;2.92;;;;;;;;;;5037680;28;20120;-68
2022/04/28 04:05:43;;;;;;;7.05;2.50;;;;;;;;;;5035675;28;20065;-68
2022/04/28 04:09:01;;;;;;;6.55;2.63;;;;;;;;;;5025646;28;20045;-68
2022/04/28 04:12:19;;;;;;;11.65;3.17;;;;;;;;;;5040378;28;20397;-68
2022/04/28 04:15:37;;;;;;;8.25;3.15;;;;;;;;;;5042820;28;20115;-68
2022/04/28 04:18:55;;;;;;;8.13;2.67;;;;;;;;;;5025908;28;20047;-68
2022/04/28 04:22:13;;;;;;;7.25;2.45;;;;;;;;;;5033256;28;20052;-68
2022/04/28 04:25:31;;;;;;;12.80;3.33;;;;;;;;;;5035827;28;20148;-68
2022/04/28 04:28:49;;;;;;;8.85;3.00;;;;;;;;;;5056817;28;20041;-68
2022/04/28 04:32:20;;;;;;;7.75;2.80;;;;;;;;;;5036937;28;20068;-68
2022/04/28 04:35:38;;;;;;;6.03;2.80;;;;;;;;;;5032534;28;20477;-68
2022/04/28 04:38:04;;;;;;;11.90;3.40;;;;;;;;;;5033450;28;20033;-68
2022/04/28 04:40:29;;;;;;;6.43;2.70;;;;;;;;;;5038389;28;20037;-68
2022/04/28 04:42:55;;;;;;;8.93;3.20;;;;;;;;;;5034057;28;20525;-68
2022/04/28 04:45:20;;;;;;;10.52;3.00;;;;;;;;;;5042961;28;20037;-68
2022/04/28 04:47:46;;;;;;;9.10;3.25;;;;;;;;;;5032552;28;20041;-68
2022/04/28 04:51:04;;;;;;;9.20;3.25;;;;;;;;;;5034683;28;20037;-68
2022/04/28 04:54:22;;;;;;;10.68;2.50;;;;;;;;;;5038816;28;20038;-68
2022/04/28 04:57:40;;;;;;;6.90;2.75;;;;;;;;;;5035012;28;20091;-68
2022/04/28 05:00:06;;;;;;;8.38;2.78;;;;;;;;;;5036695;28;20136;-68
2022/04/28 05:02:32;;;;;;;7.13;3.03;;;;;;;;;;5041027;28;20032;-68
2022/04/28 05:05:49;;;;;;;5.50;2.63;;;;;;;;;;5040323;28;20033;-68
2022/04/28 05:09:07;;;;;;;10.38;2.92;;;;;;;;;;5056125;28;20111;-68
2022/04/28 05:12:25;;;;;;;7.22;2.78;;;;;;;;;;5026256;28;20051;-68
2022/04/28 05:15:29;;;;;;;7.55;2.60;;;;;;;;;;5040677;28;20421;-68
2022/04/28 05:17:54;;;;;;;7.07;2.80;;;;;;;;;;5034986;28;20033;-68
2022/04/28 05:20:20;;;;;;;8.93;2.90;;;;;;;;;;5040364;28;20395;-68
2022/04/28 05:22:45;;;;;;;9.95;2.90;;;;;;;;;;5033856;28;20045;-68
2022/04/28 05:25:10;;;;;;;7.55;2.75;;;;;;;;;;5033808;28;20071;-68
2022/04/28 05:27:36;;;;;;;7.43;2.72;;;;;;;;;;5033642;28;20034;-68
2022/04/28 05:30:01;;;;;;;8.77;2.38;;;;;;;;;;5033138;28;20117;-68
2022/04/28 05:32:27;;;;;;;6.32;2.72;;;;;;;;;;5030734;28;20075;-68
2022/04/28 05:34:52;;;;;;;9.32;2.33;;;;;;;;;;5044099;28;20029;-68
2022/04/28 05:37:18;;;;;;;5.47;2.53;;;;;;;;;;5037245;28;20037;-68
2022/04/28 05:39:44;;;;;;;9.25;2.92;;;;;;;;;;5038896;28;20044;-68
2022/04/28 05:42:09;;;;;;;5.85;2.30;;;;;;;;;;5032885;28;20079;-68
2022/04/28 05:47:19;;;;;;;;;;;;;;;;;;5032536;28;20033;-68
2022/04/28 05:49:45;;;;;;;11.15;2.10;;;;;;;;;;5038645;28;19916;-68
2022/04/28 05:52:10;;;;;;;13.02;3.60;;;;;;;;;;5032519;28;20064;-68
2022/04/28 05:54:36;;;;;;;8.63;2.53;;;;;;;;;;5037143;28;20373;-68
2022/04/28 05:57:02;;;;;;;8.98;2.50;;;;;;;;;;5021170;28;20037;-68
2022/04/28 05:59:28;;;;;;;14.15;2.45;;;;;;;;;;5027241;28;20104;-68
2022/04/28 06:01:54;;;;;;;9.13;2.47;;;;;;;;;;5033495;28;20504;-68
2022/04/28 06:04:19;;;;;;;6.35;2.35;;;;;;;;;;5032654;28;20033;-68
2022/04/28 06:06:45;;;;;;;14.57;2.40;;;;;;;;;;5039065;28;20105;-68
2022/04/28 06:09:10;;;;;;;6.00;2.28;;;;;;;;;;5036468;28;20404;-68
2022/04/28 06:11:35;;;;;;;11.30;2.65;;;;;;;;;;5037439;28;20033;-68
2022/04/28 06:14:01;;;;;;;6.97;3.35;;;;;;;;;;5038474;28;20080;-68
2022/04/28 06:16:26;;;;;;;8.40;2.65;;;;;;;;;;5042952;28;20453;-68
2022/04/28 06:18:52;;;;;;;7.43;2.35;;;;;;;;;;5040981;28;20044;-68
2022/04/28 06:21:17;;;;;;;8.90;3.15;;;;;;;;;;5037128;28;20037;-68
2022/04/28 06:23:44;;;;;;;9.43;2.78;;;;;;;;;;5039642;28;20048;-68
2022/04/28 06:26:10;;;;;;;8.43;2.25;;;;;;;;;;5036178;28;20041;-68
2022/04/28 06:28:35;;;;;;;9.02;2.90;;;;;;;;;;5036180;28;20026;-68
2022/04/28 06:31:01;;;;;;;9.73;2.85;;;;;;;;;;5036219;28;20033;-68
2022/04/28 06:33:26;;;;;;;7.93;2.40;;;;;;;;;;5036092;28;20029;-68
2022/04/28 06:35:52;;;;;;;7.10;2.22;;;;;;;;;;5036194;28;20042;-68
2022/04/28 06:38:17;;;;;;;5.22;2.25;;;;;;;;;;5036092;28;20140;-68
2022/04/28 06:40:42;;;;;;;6.88;2.80;;;;;;;;;;5035731;28;20120;-68
2022/04/28 06:43:08;;;;;;;8.27;2.38;;;;;;;;;;5036005;28;20435;-68
2022/04/28 06:45:34;;;;;;;12.95;2.30;;;;;;;;;;5039612;28;20029;-68
2022/04/28 06:48:01;;;;;;;7.20;2.60;;;;;;;;;;5038350;28;20047;-68
2022/04/28 06:50:26;;;;;;;6.18;2.13;;;;;;;;;;5044828;28;20387;-68
2022/04/28 06:52:52;;;;;;;6.38;2.35;;;;;;;;;;5036743;28;20042;-68
2022/04/28 06:55:18;;;;;;;7.68;2.97;;;;;;;;;;5041926;28;20032;-68
2022/04/28 06:57:43;;;;;;;9.35;2.30;;;;;;;;;;5036999;28;20053;-68
2022/04/28 07:00:09;;;;;;;7.68;1.90;;;;;;;;;;5035256;28;20562;-68
2022/04/28 07:02:35;;;;;;;8.55;2.53;;;;;;;;;;5035376;28;20076;-68
2022/04/28 07:05:01;;;;;;;7.32;1.92;;;;;;;;;;5035647;28;20049;-68
2022/04/28 07:07:26;;;;;;;9.05;2.63;;;;;;;;;;5035491;28;20033;-68
2022/04/28 07:09:52;;;;;;;6.60;2.10;;;;;;;;;;5034669;28;20041;-68
2022/04/28 07:12:17;;;;;;;8.45;2.08;;;;;;;;;;5023729;28;20026;-68
2022/04/28 07:14:46;;;;;;;5.53;2.15;;;;;;;;;;5035083;28;20025;-68
2022/04/28 07:17:11;;;;;;;8.88;2.10;;;;;;;;;;5029172;28;20500;-68
2022/04/28 07:19:37;;;;;;;10.25;1.92;;;;;;;;;;5033716;28;20017;-68
2022/04/28 07:22:05;;;;;;;9.10;1.90;;;;;;;;;;5034877;28;20428;-68
2022/04/28 07:24:35;;;;;;;7.78;2.00;;;;;;;;;;5035624;28;20068;-68
2022/04/28 07:27:02;;;;;;;6.68;1.98;;;;;;;;;;5033815;28;20029;-69
2022/04/28 07:29:28;;;;;;;8.93;1.92;;;;;;;;;;5036896;28;20026;-68
2022/04/28 07:31:53;;;;;;;7.40;1.92;;;;;;;;;;5041322;28;20033;-68
2022/04/28 07:34:18;;;;;;;10.20;2.42;;;;;;;;;;5034852;28;20078;-68
2022/04/28 07:36:44;;;;;;;7.63;1.90;;;;;;;;;;5034568;28;20022;-68
2022/04/28 07:39:09;;;;;;;7.43;1.67;;;;;;;;;;5034686;28;20095;-68
2022/04/28 07:41:35;;;;;;;7.88;1.92;;;;;;;;;;5034500;28;20122;-68
2022/04/28 07:44:00;;;;;;;5.80;1.90;;;;;;;;;;5034824;28;20025;-68
2022/04/28 07:46:25;;;;;;;6.65;1.90;;;;;;;;;;5034446;28;20044;-68
2022/04/28 07:48:51;;;;;;;8.50;1.90;;;;;;;;;;5034458;28;20026;-68
2022/04/28 07:51:16;;;;;;;9.63;2.30;;;;;;;;;;5039661;28;20458;-68
2022/04/28 07:53:41;;;;;;;7.60;1.90;;;;;;;;;;5035019;28;20116;-68
2022/04/28 07:56:14;;;;;;;8.93;2.30;;;;;;;;;;5033894;28;20052;-68
2022/04/28 07:58:43;;;;;;;5.50;2.08;;;;;;;;;;5034600;28;20029;-68
2022/04/28 08:01:09;;;;;;;6.72;2.00;;;;;;;;;;5033753;28;20570;-68
2022/04/28 08:03:35;;;;;;;6.13;1.83;;;;;;;;;;5034336;28;20034;-68
2022/04/28 08:06:01;;;;;;;9.65;1.92;;;;;;;;;;5033150;28;20129;-68
2022/04/28 08:08:27;;;;;;;8.70;2.70;;;;;;;;;;5049320;28;20033;-68
2022/04/28 08:10:53;;;;;;;9.55;2.10;;;;;;;;;;5034169;28;20036;-68
2022/04/28 08:13:19;;;;;;;6.03;2.13;;;;;;;;;;5033832;28;20113;-68
2022/04/28 08:15:44;;;;;;;10.80;2.88;;;;;;;;;;5033374;28;20116;-68
2022/04/28 08:18:09;;;;;;;3.35;1.85;;;;;;;;;;5032784;28;20030;-68
2022/04/28 08:20:35;;;;;;;6.22;2.33;;;;;;;;;;5034119;28;20026;-68
2022/04/28 08:23:01;;;;;;;4.68;1.90;;;;;;;;;;5034000;28;20063;-68
2022/04/28 08:25:27;;;;;;;6.03;1.83;;;;;;;;;;5033652;28;20033;-68
2022/04/28 08:27:52;;;;;;;7.93;1.77;;;;;;;;;;5036213;28;20049;-68
2022/04/28 08:30:18;;;;;;;10.20;2.38;;;;;;;;;;5033152;28;20038;-68
2022/04/28 08:32:43;;;;;;;9.82;2.03;;;;;;;;;;5033667;28;20029;-68
2022/04/28 08:35:09;;;;;;;3.85;1.83;;;;;;;;;;5037706;28;20028;-68
2022/04/28 08:37:36;;;;;;;7.80;2.53;;;;;;;;;;5042392;28;20426;-68
2022/04/28 08:40:02;;;;;;;7.63;2.33;;;;;;;;;;5037466;28;20465;-68
2022/04/28 08:42:28;;;;;;;6.20;1.83;;;;;;;;;;5040698;28;20036;-68
2022/04/28 08:44:59;;;;;;;7.63;2.13;;;;;;;;;;5033314;28;20108;-68
2022/04/28 08:47:25;;;;;;;6.95;2.20;;;;;;;;;;5027289;28;20024;-68
2022/04/28 08:49:51;;;;;;;7.70;2.13;;;;;;;;;;5033266;28;20036;-68
2022/04/28 08:52:17;;;;;;;8.63;2.70;;;;;;;;;;5029341;28;20040;-69
2022/04/28 08:54:44;;;;;;;6.22;2.20;;;;;;;;;;5050577;28;20032;-68
2022/04/28 08:57:11;;;;;;;8.05;2.72;;;;;;;;;;5038323;28;20029;-69
2022/04/28 08:59:37;;;;;;;8.55;2.40;;;;;;;;;;5033659;28;20389;-68
2022/04/28 09:02:02;;;;;;;5.13;1.73;;;;;;;;;;5029367;28;20496;-69
2022/04/28 09:04:28;;;;;;;6.00;2.40;;;;;;;;;;5027876;28;20035;-68
2022/04/28 09:06:55;;;;;;;8.70;1.92;;;;;;;;;;5029237;28;20497;-68
2022/04/28 09:09:21;;;;;;;7.75;2.22;;;;;;;;;;5028988;28;20029;-68
2022/04/28 09:11:48;;;;;;;7.75;1.92;;;;;;;;;;5029116;28;20121;-68
2022/04/28 09:15:11;;;;;;;9.85;2.63;;;;;;;;;;5028820;28;20416;-68
2022/04/28 09:18:33;;;;;;;6.68;2.33;;;;;;;;;;5024043;28;20480;-68
2022/04/28 09:21:53;;;;;;;6.25;2.03;;;;;;;;;;5028290;28;20041;-68
2022/04/28 09:25:06;;;;;;;7.50;2.40;;;;;;;;;;5029006;28;20469;-68
2022/04/28 09:27:32;;;;;;;6.88;2.63;;;;;;;;;;5019661;28;20055;-68
2022/04/28 09:29:59;;;;;;;6.85;2.20;;;;;;;;;;5044026;28;20144;-68
2022/04/28 09:32:25;;;;;;;6.72;2.72;;;;;;;;;;5028515;28;20037;-68
2022/04/28 09:34:52;;;;;;;10.10;2.45;;;;;;;;;;5044687;28;20033;-68
2022/04/28 09:37:22;;;;;;;10.43;2.65;;;;;;;;;;5029290;28;20516;-69
2022/04/28 09:42:39;;;;;;;10.18;2.65;;;;;;;;;;5026023;28;20424;-68
2022/04/28 09:45:05;;;;;;;9.38;2.90;;;;;;;;;;5031914;28;20120;-68
2022/04/28 09:47:32;;;;;;;6.18;2.20;;;;;;;;;;5024229;28;21042;-68
2022/04/28 09:49:58;;;;;;;11.57;3.40;;;;;;;;;;5030878;28;20030;-68
2022/04/28 09:52:26;;;;;;;3.63;1.50;;;;;;;;;;5032177;28;20540;-68
2022/04/28 09:54:53;;;;;;;7.28;2.00;;;;;;;;;;5032281;28;20478;-69
2022/04/28 09:57:20;;;;;;;5.28;2.47;;;;;;;;;;5031343;28;20033;-68
2022/04/28 10:00:39;;;;;;;8.00;2.50;;;;;;;;;;5031823;28;20120;-69
2022/04/28 10:03:06;;;;;;;4.45;2.10;;;;;;;;;;5031704;28;20068;-68
2022/04/28 10:05:33;;;;;;;8.80;2.50;;;;;;;;;;5063913;28;20056;-68
2022/04/28 10:07:59;;;;;;;8.55;2.38;;;;;;;;;;5031911;28;20036;-68
2022/04/28 10:10:26;;;;;;;8.90;2.28;;;;;;;;;;5063781;28;20424;-68
2022/04/28 10:12:54;;;;;;;8.02;2.20;;;;;;;;;;5031219;28;20092;-69
2022/04/28 10:15:22;;;;;;;4.13;2.35;;;;;;;;;;5055125;28;20088;-68
2022/04/28 10:17:55;;;;;;;8.88;2.50;;;;;;;;;;5027070;28;20107;-68
2022/04/28 10:20:30;;;;;;;10.85;2.38;;;;;;;;;;5043434;28;20047;-69
2022/04/28 10:22:56;;;;;;;9.77;2.65;;;;;;;;;;5045843;28;20136;-69
2022/04/28 10:33:49;;;;;;;8.68;2.42;;;;;;;;;;5019515;28;20036;-68
2022/04/28 10:36:20;;;;;;;7.88;2.20;;;;;;;;;;5031967;28;20358;-68
2022/04/28 10:39:07;;;;;;;6.60;2.30;;;;;;;;;;5032274;28;20072;-68
2022/04/28 10:41:33;;;;;;;8.88;2.70;;;;;;;;;;5030835;28;20045;-68
2022/04/28 10:44:00;;;;;;;6.30;2.90;;;;;;;;;;5027667;28;20469;-68
2022/04/28 10:46:28;;;;;;;8.80;2.63;;;;;;;;;;5030063;28;20084;-68
2022/04/28 10:48:55;;;;;;;11.35;3.05;;;;;;;;;;5023623;28;20535;-68
2022/04/28 10:51:21;;;;;;;10.48;2.60;;;;;;;;;;5031376;28;20025;-68
2022/04/28 10:54:14;;;;;;;9.68;3.03;;;;;;;;;;5030119;28;20068;-68
2022/04/28 10:56:39;;;;;;;6.15;2.40;;;;;;;;;;5030055;28;20054;-68
2022/04/28 10:59:29;;;;;;;3.55;2.03;;;;;;;;;;5030797;28;20037;-69
2022/04/28 11:01:55;;;;;;;6.60;2.97;;;;;;;;;;5029080;28;20087;-68
2022/04/28 11:04:23;;;;;;;7.05;2.10;;;;;;;;;;5030823;28;20029;-68
2022/04/28 11:06:58;;;;;;;7.80;2.78;;;;;;;;;;5030370;28;20061;-68
2022/04/28 11:09:43;;;;;;;9.15;2.90;;;;;;;;;;5030986;28;20037;-68
2022/04/28 11:12:18;;;;;;;10.75;2.85;;;;;;;;;;5030066;28;20037;-68
2022/04/28 11:15:05;;;;;;;6.15;2.78;;;;;;;;;;5029337;28;20033;-69
2022/04/28 11:17:32;;;;;;;7.65;2.67;;;;;;;;;;5030524;28;20126;-68
2022/04/28 11:20:04;;;;;;;7.00;2.70;;;;;;;;;;5030173;28;20496;-68
2022/04/28 11:22:30;;;;;;;7.05;2.03;;;;;;;;;;5028826;28;21466;-68
2022/04/28 11:24:59;;;;;;;6.95;2.85;;;;;;;;;;5031622;28;20025;-69
2022/04/28 11:27:27;;;;;;;9.13;3.00;;;;;;;;;;5033048;28;20037;-68
2022/04/28 11:29:57;;;;;;;4.15;1.83;;;;;;;;;;5030563;28;20103;-68
2022/04/28 11:32:23;;;;;;;8.90;2.33;;;;;;;;;;5032079;28;20112;-68
2022/04/28 11:34:50;;;;;;;10.02;2.90;;;;;;;;;;5031026;28;20144;-68
2022/04/28 11:37:23;;;;;;;8.45;2.58;;;;;;;;;;5031758;28;20029;-68
2022/04/28 11:39:51;;;;;;;10.00;3.10;;;;;;;;;;5033130;28;20115;-68
2022/04/28 11:42:18;;;;;;;6.07;2.70;;;;;;;;;;5026525;28;20037;-68
2022/04/28 11:44:48;;;;;;;9.70;2.92;;;;;;;;;;5030484;28;20037;-68
2022/04/28 11:47:14;;;;;;;7.03;2.65;;;;;;;;;;5026898;28;20046;-68
2022/04/28 11:49:40;;;;;;;6.15;2.55;;;;;;;;;;5032003;28;20033;-68
2022/04/28 11:52:28;;;;;;;9.43;2.67;;;;;;;;;;5022583;28;20061;-68
2022/04/28 11:54:58;;;;;;;7.07;2.92;;;;;;;;;;5028531;28;20037;-68
2022/04/28 11:57:24;;;;;;;7.50;2.80;;;;;;;;;;5026463;28;20345;-68
2022/04/28 11:59:50;;;;;;;9.73;3.30;;;;;;;;;;5029131;28;20570;-68
2022/04/28 12:02:30;;;;;;;7.57;2.90;;;;;;;;;;5029619;28;20042;-68
2022/04/28 12:04:56;;;;;;;10.23;3.22;;;;;;;;;;5030265;28;20029;-68
2022/04/28 12:07:32;;;;;;;10.50;3.35;;;;;;;;;;5029515;28;20071;-68
2022/04/28 12:15:27;;;;;;;11.32;3.00;;;;;;;;;;5029037;28;20084;-68
2022/04/28 12:20:59;;;;;;;10.13;3.45;;;;;;;;;;5010184;28;20056;-68
2022/04/28 12:23:28;;;;;;;12.88;3.65;;;;;;;;;;5029531;28;20180;-68
2022/04/28 12:26:02;;;;;;;7.25;3.30;;;;;;;;;;5028588;28;20163;-68
2022/04/28 12:28:40;;;;;;;11.57;3.55;;;;;;;;;;5029217;28;20294;-68
2022/04/28 12:31:15;;;;;;;8.50;3.20;;;;;;;;;;5028419;28;20061;-69
2022/04/28 12:33:42;;;;;;;12.27;3.40;;;;;;;;;;5029111;28;20038;-68
2022/04/28 12:36:14;;;;;;;10.88;3.10;;;;;;;;;;5029381;28;20127;-68
2022/04/28 12:38:53;;;;;;;5.43;2.55;;;;;;;;;;5029345;28;20044;-68
2022/04/28 12:41:24;;;;;;;11.40;3.55;;;;;;;;;;5028239;28;20041;-68
2022/04/28 12:43:51;;;;;;;12.38;3.28;;;;;;;;;;5028965;28;20154;-68
2022/04/28 12:46:23;;;;;;;10.63;3.33;;;;;;;;;;5028908;28;20056;-68
2022/04/28 12:48:55;;;;;;;6.60;3.22;;;;;;;;;;5027636;28;20042;-68
2022/04/28 12:51:23;;;;;;;8.73;3.50;;;;;;;;;;5028592;28;20044;-68
2022/04/28 12:53:53;;;;;;;11.70;3.20;;;;;;;;;;5028287;28;20033;-68
2022/04/28 12:56:30;;;;;;;14.23;3.53;;;;;;;;;;5022708;28;20083;-69
2022/04/28 12:59:00;;;;;;;11.52;2.85;;;;;;;;;;5026308;28;20072;-68
2022/04/28 13:01:27;;;;;;;10.30;3.45;;;;;;;;;;5022475;28;20061;-68
2022/04/28 13:03:57;;;;;;;16.33;3.28;;;;;;;;;;5043765;28;20090;-68
2022/04/28 13:06:27;;;;;;;9.77;3.30;;;;;;;;;;5029017;28;20072;-69
2022/04/28 13:08:54;;;;;;;9.73;2.97;;;;;;;;;;5029130;28;20037;-69
2022/04/28 13:11:31;;;;;;;6.75;3.22;;;;;;;;;;5029428;28;20033;-68
2022/04/28 13:13:58;;;;;;;10.18;2.95;;;;;;;;;;5041284;28;20037;-68
2022/04/28 13:16:24;;;;;;;8.73;3.67;;;;;;;;;;5029038;28;20083;-68
2022/04/28 13:18:49;;;;;;;10.65;3.85;;;;;;;;;;5028752;28;20051;-68
2022/04/28 13:21:15;;;;;;;9.27;3.30;;;;;;;;;;5024673;28;20037;-68
2022/04/28 13:23:45;;;;;;;12.07;3.58;;;;;;;;;;5027913;28;20045;-68
2022/04/28 13:26:13;;;;;;;13.38;3.60;;;;;;;;;;5028328;28;20025;-68
2022/04/28 13:28:39;;;;;;;7.63;3.00;;;;;;;;;;5028277;28;20041;-68
2022/04/28 13:31:05;;;;;;;7.85;3.50;;;;;;;;;;5028386;28;20040;-68
2022/04/28 13:33:31;;;;;;;7.47;2.75;;;;;;;;;;5028205;28;20036;-69
2022/04/28 13:35:57;;;;;;;5.32;2.85;;;;;;;;;;5040535;28;20053;-68
2022/04/28 13:38:23;;;;;;;9.70;3.40;;;;;;;;;;5028475;28;20042;-68
2022/04/28 13:40:49;;;;;;;9.23;3.42;;;;;;;;;;5026410;28;20034;-68
2022/04/28 13:43:14;;;;;;;9.65;3.05;;;;;;;;;;5028154;28;20396;-68
2022/04/28 13:45:39;;;;;;;12.50;3.53;;;;;;;;;;5028793;28;20183;-68
2022/04/28 13:48:05;;;;;;;8.82;3.72;;;;;;;;;;5028464;28;20045;-68
2022/04/28 13:50:31;;;;;;;8.60;3.75;;;;;;;;;;5025009;28;20250;-68
2022/04/28 13:52:56;;;;;;;8.15;3.33;;;;;;;;;;5027014;28;20038;-68
2022/04/28 13:55:22;;;;;;;7.75;3.33;;;;;;;;;;5025138;28;20033;-69
2022/04/28 13:57:48;;;;;;;9.75;3.78;;;;;;;;;;5028085;28;20124;-68
2022/04/28 14:00:15;;;;;;;9.48;3.45;;;;;;;;;;5028074;28;20034;-68
2022/04/28 14:02:41;;;;;;;6.90;3.53;;;;;;;;;;5028319;28;20465;-68
2022/04/28 14:05:07;;;;;;;10.30;3.65;;;;;;;;;;5027701;28;20057;-68
2022/04/28 14:07:36;;;;;;;7.00;2.75;;;;;;;;;;5056613;28;20052;-68
2022/04/28 14:10:05;;;;;;;10.40;2.60;;;;;;;;;;5028218;28;20392;-68
2022/04/28 14:12:31;;;;;;;9.93;3.20;;;;;;;;;;5027533;28;20749;-68
2022/04/28 14:14:57;;;;;;;9.40;3.28;;;;;;;;;;5027576;28;20460;-68
2022/04/28 14:17:22;;;;;;;10.68;3.53;;;;;;;;;;5018100;28;20033;-68
2022/04/28 14:19:48;;;;;;;10.50;3.55;;;;;;;;;;5027433;28;20039;-68
2022/04/28 14:22:17;;;;;;;8.75;3.60;;;;;;;;;;5024132;28;20465;-68
2022/04/28 14:24:49;;;;;;;7.88;3.65;;;;;;;;;;5020294;28;20022;-68
2022/04/28 14:27:15;;;;;;;9.18;3.17;;;;;;;;;;5028575;28;20037;-68
2022/04/28 14:29:41;;;;;;;9.50;3.50;;;;;;;;;;5031374;28;20393;-69
2022/04/28 14:32:07;;;;;;;8.18;3.55;;;;;;;;;;5029645;28;20033;-68
2022/04/28 14:34:33;;;;;;;6.85;3.30;;;;;;;;;;5027732;28;20044;-68
2022/04/28 14:36:59;;;;;;;11.38;3.92;;;;;;;;;;5031529;28;20037;-68
2022/04/28 14:39:25;;;;;;;12.05;4.05;;;;;;;;;;5031224;28;20527;-68
2022/04/28 14:41:51;;;;;;;7.72;3.40;;;;;;;;;;5031241;28;20485;-68
2022/04/28 14:44:17;;;;;;;8.35;3.55;;;;;;;;;;5042905;28;20075;-68
2022/04/28 14:46:42;;;;;;;10.85;3.53;;;;;;;;;;5030702;28;20021;-68
2022/04/28 14:55:28;;;;;;;9.57;4.18;;;;;;;;;;5030599;28;20064;-68
2022/04/28 14:57:54;;;;;;;9.38;3.67;;;;;;;;;;5030877;28;20053;-68
2022/04/28 15:00:22;;;;;;;6.78;2.95;;;;;;;;;;5023293;28;20057;-68
2022/04/28 15:02:48;;;;;;;7.20;3.88;;;;;;;;;;5031157;28;20474;-68
2022/04/28 15:05:13;;;;;;;9.32;3.50;;;;;;;;;;5030817;28;20030;-68
2022/04/28 15:07:39;;;;;;;12.05;3.50;;;;;;;;;;5030868;28;20126;-69
2022/04/28 15:10:08;;;;;;;8.25;3.60;;;;;;;;;;5030581;28;20042;-68
2022/04/28 15:12:34;;;;;;;8.13;3.65;;;;;;;;;;5031074;28;20072;-68
2022/04/28 15:15:00;;;;;;;7.05;2.97;;;;;;;;;;5030340;28;20041;-68
2022/04/28 15:17:27;;;;;;;10.05;3.88;;;;;;;;;;5026732;28;20044;-68
2022/04/28 15:19:53;;;;;;;9.93;3.63;;;;;;;;;;5031123;28;20056;-68
2022/04/28 15:22:18;;;;;;;8.70;3.30;;;;;;;;;;5030979;28;20088;-68
2022/04/28 15:24:44;;;;;;;9.60;3.67;;;;;;;;;;5030835;28;20045;-68
2022/04/28 15:27:11;;;;;;;8.27;3.25;;;;;;;;;;5029832;28;20095;-68
2022/04/28 15:29:36;;;;;;;8.57;3.33;;;;;;;;;;5030640;28;20128;-68
2022/04/28 15:32:03;;;;;;;7.45;3.90;;;;;;;;;;5030503;28;20112;-69
2022/04/28 15:34:29;;;;;;;10.40;3.60;;;;;;;;;;5046544;28;20064;-68
2022/04/28 15:36:55;;;;;;;6.13;3.65;;;;;;;;;;5029857;28;20960;-68
2022/04/28 15:39:21;;;;;;;5.38;3.20;;;;;;;;;;5028903;28;20033;-68
2022/04/28 15:41:47;;;;;;;11.68;4.25;;;;;;;;;;5030759;28;20065;-68
2022/04/28 15:44:12;;;;;;;7.88;3.35;;;;;;;;;;5029935;28;20038;-68
2022/04/28 15:46:38;;;;;;;8.10;3.50;;;;;;;;;;5029953;28;20072;-69
2022/04/28 15:49:05;;;;;;;7.07;3.92;;;;;;;;;;5030045;28;20036;-68
2022/04/28 15:51:30;;;;;;;8.90;3.28;;;;;;;;;;5029347;28;20481;-68
2022/04/28 15:53:56;;;;;;;9.90;3.80;;;;;;;;;;5030055;28;20044;-68
2022/04/28 15:56:21;;;;;;;7.90;3.40;;;;;;;;;;5026369;28;20036;-68
2022/04/28 15:58:48;;;;;;;5.35;3.05;;;;;;;;;;5025703;28;20045;-69
2022/04/28 16:01:14;;;;;;;16.70;3.97;;;;;;;;;;5027012;28;20041;-68
2022/04/28 16:03:41;;;;;;;6.70;3.13;;;;;;;;;;5029883;28;20087;-68
2022/04/28 16:06:06;;;;;;;7.15;2.75;;;;;;;;;;5029412;28;20065;-68
2022/04/28 16:08:31;;;;;;;9.05;3.35;;;;;;;;;;5029449;28;20061;-68
2022/04/28 16:10:57;;;;;;;5.47;2.92;;;;;;;;;;5029800;28;20026;-69
2022/04/28 16:13:22;;;;;;;10.75;3.90;;;;;;;;;;5029207;28;20061;-68
2022/04/28 16:15:50;;;;;;;9.27;3.53;;;;;;;;;;5029735;28;20033;-68